createdAt,value
2018-09-12T00:01:45.998Z,14.70
2018-09-12T00:04:50.242Z,14.70
2018-09-12T00:07:54.453Z,14.70
2018-09-12T00:10:58.665Z,14.70
2018-09-12T00:14:02.884Z,14.70
2018-09-12T00:17:07.146Z,14.60
2018-09-12T00:20:11.385Z,14.60
2018-09-12T00:23:15.649Z,14.70
2018-09-12T00:26:19.894Z,14.70
2018-09-12T00:29:24.105Z,14.70
2018-09-12T00:32:28.349Z,14.60
2018-09-12T00:35:32.576Z,14.60
2018-09-12T00:38:36.833Z,14.70
2018-09-12T00:41:41.057Z,14.70
2018-09-12T00:44:45.281Z,14.70
2018-09-12T00:47:49.522Z,14.70
2018-09-12T00:50:53.749Z,14.60
2018-09-12T00:53:57.969Z,14.60
2018-09-12T00:57:02.214Z,14.60
2018-09-12T01:00:06.457Z,14.60
2018-09-12T01:03:10.721Z,14.60
2018-09-12T01:06:14.929Z,14.60
2018-09-12T01:09:19.181Z,14.60
2018-09-12T01:12:23.401Z,14.60
2018-09-12T01:15:27.637Z,14.70
2018-09-12T01:18:31.858Z,14.70
2018-09-12T01:21:36.097Z,14.70
2018-09-12T01:24:40.333Z,14.70
2018-09-12T01:27:48.105Z,14.80
2018-09-12T01:30:52.625Z,14.80
2018-09-12T01:33:56.844Z,14.70
2018-09-12T01:37:01.059Z,14.70
2018-09-12T01:40:05.473Z,14.70
2018-09-12T01:43:09.697Z,14.70
2018-09-12T01:46:13.929Z,14.70
2018-09-12T01:49:19.598Z,14.80
2018-09-12T01:52:23.804Z,14.80
2018-09-12T01:55:28.058Z,14.70
2018-09-12T01:58:32.298Z,14.70
2018-09-12T02:01:36.518Z,14.70
2018-09-12T02:04:40.713Z,14.60
2018-09-12T02:07:44.925Z,14.60
2018-09-12T02:10:49.173Z,14.60
2018-09-12T02:13:53.392Z,14.60
2018-09-12T02:16:57.619Z,14.60
2018-09-12T02:20:01.849Z,14.60
2018-09-12T02:23:06.093Z,14.50
2018-09-12T02:26:10.326Z,14.50
2018-09-12T02:29:14.544Z,14.50
2018-09-12T02:32:18.798Z,14.40
2018-09-12T02:35:23.019Z,14.40
2018-09-12T02:38:27.270Z,14.40
2018-09-12T02:41:31.490Z,14.40
2018-09-12T02:44:35.717Z,14.40
2018-09-12T02:47:40.601Z,14.40
2018-09-12T02:50:44.830Z,14.40
2018-09-12T02:53:49.053Z,14.30
2018-09-12T02:56:53.254Z,14.30
2018-09-12T02:59:57.513Z,14.30
2018-09-12T03:03:01.761Z,14.30
2018-09-12T03:06:06.157Z,14.30
2018-09-12T03:09:11.256Z,14.30
2018-09-12T03:12:15.893Z,14.30
2018-09-12T03:15:20.126Z,14.30
2018-09-12T03:18:24.362Z,14.30
2018-09-12T03:21:28.596Z,14.30
2018-09-12T03:24:32.870Z,14.30
2018-09-12T03:27:37.086Z,14.20
2018-09-12T03:30:41.325Z,14.20
2018-09-12T03:33:45.536Z,14.20
2018-09-12T03:36:49.775Z,14.20
2018-09-12T03:39:55.065Z,14.10
2018-09-12T03:42:59.277Z,14.10
2018-09-12T03:46:03.492Z,14.10
2018-09-12T03:49:07.726Z,14.10
2018-09-12T03:52:11.987Z,14.10
2018-09-12T03:55:16.161Z,14.10
2018-09-12T03:58:20.379Z,14.10
2018-09-12T04:01:24.592Z,14.10
2018-09-12T04:04:28.781Z,14.10
2018-09-12T04:07:33.022Z,14.10
2018-09-12T04:10:37.243Z,14.10
2018-09-12T04:13:41.456Z,14.10
2018-09-12T04:16:45.673Z,14.10
2018-09-12T04:19:49.901Z,14.10
2018-09-12T04:22:54.097Z,14.10
2018-09-12T04:25:58.327Z,14.10
2018-09-12T04:29:02.556Z,14.10
2018-09-12T04:32:06.807Z,14.10
2018-09-12T04:35:11.013Z,14.10
2018-09-12T04:38:15.234Z,14.10
2018-09-12T04:41:19.458Z,14.10
2018-09-12T04:44:23.656Z,14.10
2018-09-12T04:47:27.876Z,14.10
2018-09-12T04:50:32.053Z,14.10
2018-09-12T04:53:36.269Z,14.10
2018-09-12T04:56:40.489Z,14.10
2018-09-12T04:59:44.785Z,14.10
2018-09-12T05:02:48.941Z,14.10
2018-09-12T05:05:53.163Z,14.10
2018-09-12T05:08:57.362Z,14.10
2018-09-12T05:12:01.609Z,14.10
2018-09-12T05:15:05.888Z,14.10
2018-09-12T05:18:10.120Z,14.10
2018-09-12T05:21:14.922Z,14.20
2018-09-12T05:24:19.141Z,14.20
2018-09-12T05:27:23.419Z,14.10
2018-09-12T05:30:27.610Z,14.20
2018-09-12T05:33:31.867Z,14.30
2018-09-12T05:36:36.094Z,14.30
2018-09-12T05:39:40.320Z,14.40
2018-09-12T05:42:44.501Z,14.40
2018-09-12T05:45:48.733Z,14.50
2018-09-12T05:48:52.917Z,14.50
2018-09-12T05:51:57.122Z,14.70
2018-09-12T05:55:01.347Z,14.60
2018-09-12T05:58:05.559Z,14.70
2018-09-12T06:01:09.766Z,14.70
2018-09-12T06:04:13.957Z,14.70
2018-09-12T06:07:18.286Z,14.60
2018-09-12T06:10:22.434Z,14.60
2018-09-12T06:13:26.658Z,14.70
2018-09-12T06:16:30.844Z,14.70
2018-09-12T06:19:35.081Z,14.80
2018-09-12T06:22:39.277Z,14.80
2018-09-12T06:25:43.494Z,14.80
2018-09-12T06:28:47.682Z,14.80
2018-09-12T06:31:51.917Z,14.80
2018-09-12T06:34:56.113Z,14.90
2018-09-12T06:38:00.337Z,14.80
2018-09-12T06:41:04.544Z,14.80
2018-09-12T06:44:08.939Z,14.80
2018-09-12T06:47:13.785Z,14.80
2018-09-12T06:50:18.004Z,14.80
2018-09-12T06:53:22.209Z,14.70
2018-09-12T06:56:26.457Z,14.70
2018-09-12T06:59:30.624Z,14.70
2018-09-12T07:02:34.849Z,14.70
2018-09-12T07:05:39.069Z,14.70
2018-09-12T07:08:43.293Z,14.70
2018-09-12T07:11:47.517Z,14.70
2018-09-12T07:14:51.707Z,14.70
2018-09-12T07:17:55.925Z,14.70
2018-09-12T07:21:00.145Z,14.70
2018-09-12T07:24:04.352Z,14.80
2018-09-12T07:27:08.570Z,14.80
2018-09-12T07:30:12.901Z,14.80
2018-09-12T07:33:17.114Z,14.70
2018-09-12T07:36:21.360Z,14.60
2018-09-12T07:39:25.565Z,14.40
2018-09-12T07:42:29.778Z,14.30
2018-09-12T07:45:34.041Z,14.20
2018-09-12T07:48:38.264Z,14.20
2018-09-12T07:51:42.494Z,14.20
2018-09-12T07:54:46.723Z,14.20
2018-09-12T07:57:50.960Z,14.10
2018-09-12T08:00:55.170Z,14.10
2018-09-12T08:03:59.378Z,14.20
2018-09-12T08:07:03.592Z,14.20
2018-09-12T08:10:08.129Z,14.20
2018-09-12T08:13:12.371Z,14.30
2018-09-12T08:16:16.605Z,14.40
2018-09-12T08:19:20.839Z,14.40
2018-09-12T08:22:25.084Z,14.40
2018-09-12T08:25:29.284Z,14.50
2018-09-12T08:28:33.616Z,14.60
2018-09-12T08:31:37.825Z,14.60
2018-09-12T08:34:42.064Z,14.60
2018-09-12T08:37:46.382Z,14.50
2018-09-12T08:40:50.613Z,14.40
2018-09-12T08:43:54.801Z,14.40
2018-09-12T08:46:59.036Z,14.30
2018-09-12T08:50:03.263Z,14.30
2018-09-12T08:53:07.521Z,14.30
2018-09-12T08:56:11.725Z,14.30
2018-09-12T08:59:15.956Z,14.20
2018-09-12T09:02:20.165Z,14.30
2018-09-12T09:05:24.422Z,14.20
2018-09-12T09:08:28.670Z,14.30
2018-09-12T09:11:32.885Z,14.30
2018-09-12T09:14:37.141Z,14.30
2018-09-12T09:17:41.371Z,14.30
2018-09-12T09:20:45.660Z,14.30
2018-09-12T09:23:49.881Z,14.30
2018-09-12T09:26:54.100Z,14.30
2018-09-12T09:29:59.307Z,14.30
2018-09-12T09:33:03.525Z,14.30
2018-09-12T09:36:07.426Z,14.30
2018-09-12T09:39:12.540Z,14.20
2018-09-12T09:42:16.765Z,14.20
2018-09-12T09:45:20.995Z,14.20
2018-09-12T09:48:25.238Z,14.20
2018-09-12T09:51:29.415Z,14.20
2018-09-12T09:54:33.714Z,14.30
2018-09-12T09:57:38.576Z,14.20
2018-09-12T10:00:47.836Z,14.30
2018-09-12T10:03:57.298Z,14.30
2018-09-12T10:07:06.818Z,14.40
2018-09-12T10:10:11.034Z,14.50
2018-09-12T10:13:15.254Z,14.50
2018-09-12T10:16:19.954Z,14.50
2018-09-12T10:19:24.161Z,14.50
2018-09-12T10:22:28.364Z,14.50
2018-09-12T10:25:32.628Z,14.60
2018-09-12T10:28:37.013Z,14.60
2018-09-12T10:31:41.243Z,14.60
2018-09-12T10:34:45.669Z,14.60
2018-09-12T10:37:49.885Z,14.60
2018-09-12T10:40:54.160Z,14.70
2018-09-12T10:43:58.376Z,14.70
2018-09-12T10:47:02.596Z,14.70
2018-09-12T10:50:06.808Z,14.80
2018-09-12T10:53:11.034Z,14.80
2018-09-12T10:56:15.264Z,14.80
2018-09-12T10:59:19.494Z,14.80
2018-09-12T11:02:23.698Z,14.80
2018-09-12T11:05:27.946Z,14.80
2018-09-12T11:08:32.168Z,14.90
2018-09-12T11:11:36.392Z,14.90
2018-09-12T11:14:40.616Z,14.80
2018-09-12T11:17:44.849Z,14.70
2018-09-12T11:20:49.057Z,14.70
2018-09-12T11:23:53.331Z,14.80
2018-09-12T11:26:57.551Z,14.80
2018-09-12T11:30:01.764Z,14.90
2018-09-12T11:33:05.989Z,15.00
2018-09-12T11:36:10.233Z,15.00
2018-09-12T11:39:14.453Z,15.00
2018-09-12T11:42:18.685Z,15.10
2018-09-12T11:45:22.899Z,15.20
2018-09-12T11:48:27.124Z,15.30
2018-09-12T11:51:31.509Z,15.50
2018-09-12T11:54:35.729Z,15.50
2018-09-12T11:57:39.974Z,15.50
2018-09-12T12:00:44.192Z,15.60
2018-09-12T12:03:48.613Z,15.50
2018-09-12T12:06:52.809Z,15.60
2018-09-12T12:09:57.029Z,15.60
2018-09-12T12:13:01.249Z,15.60
2018-09-12T12:16:05.470Z,15.60
2018-09-12T12:19:09.667Z,15.50
2018-09-12T12:22:14.066Z,15.50
2018-09-12T12:25:18.288Z,15.40
2018-09-12T12:28:22.513Z,15.40
2018-09-12T12:31:26.704Z,15.30
2018-09-12T12:34:30.937Z,15.20
2018-09-12T12:37:35.153Z,15.30
2018-09-12T12:40:39.364Z,15.30
2018-09-12T12:43:43.594Z,15.30
2018-09-12T12:46:47.909Z,15.20
2018-09-12T12:49:52.125Z,15.20
2018-09-12T12:52:56.370Z,15.20
2018-09-12T12:56:00.582Z,15.20
2018-09-12T12:59:05.125Z,15.20
2018-09-12T13:02:09.342Z,15.20
2018-09-12T13:05:13.616Z,15.20
2018-09-12T13:08:17.873Z,15.30
2018-09-12T13:11:22.107Z,15.30
2018-09-12T13:14:26.339Z,15.40
2018-09-12T13:17:30.742Z,15.50
2018-09-12T13:20:34.948Z,15.50
2018-09-12T13:23:39.140Z,15.50
2018-09-12T13:26:43.330Z,15.60
2018-09-12T13:29:47.557Z,15.60
2018-09-12T13:32:51.755Z,15.60
2018-09-12T13:35:56.000Z,15.60
2018-09-12T13:39:00.225Z,15.70
2018-09-12T13:42:04.445Z,15.80
2018-09-12T13:45:08.699Z,15.80
2018-09-12T13:48:12.905Z,15.80
2018-09-12T13:51:17.132Z,15.80
2018-09-12T13:54:21.333Z,15.80
2018-09-12T13:57:25.557Z,15.80
2018-09-12T14:00:31.631Z,15.80
2018-09-12T14:03:35.861Z,15.80
2018-09-12T14:06:40.044Z,15.80
2018-09-12T14:09:44.261Z,15.70
2018-09-12T14:12:48.469Z,15.70
2018-09-12T14:15:52.673Z,15.60
2018-09-12T14:18:56.884Z,15.70
2018-09-12T14:22:01.109Z,15.70
2018-09-12T14:25:05.365Z,15.70
2018-09-12T14:28:09.679Z,15.70
2018-09-12T14:31:13.885Z,15.80
2018-09-12T14:34:18.081Z,15.70
2018-09-12T14:37:22.312Z,15.80
2018-09-12T14:40:26.545Z,15.80
2018-09-12T14:43:30.766Z,15.70
2018-09-12T14:46:34.956Z,15.70
2018-09-12T14:49:39.168Z,15.70
2018-09-12T14:52:43.369Z,15.70
2018-09-12T14:55:47.581Z,15.80
2018-09-12T14:58:51.777Z,15.80
2018-09-12T15:01:55.985Z,15.80
2018-09-12T15:05:00.273Z,15.80
2018-09-12T15:08:04.446Z,15.80
2018-09-12T15:11:08.654Z,15.80
2018-09-12T15:14:12.860Z,15.80
2018-09-12T15:17:17.062Z,15.90
2018-09-12T15:20:21.260Z,15.90
2018-09-12T15:23:25.477Z,15.90
2018-09-12T15:26:29.680Z,15.90
2018-09-12T15:29:33.881Z,15.80
2018-09-12T15:32:38.151Z,15.80
2018-09-12T15:35:42.361Z,15.90
2018-09-12T15:38:46.557Z,15.80
2018-09-12T15:41:50.811Z,15.90
2018-09-12T15:44:55.007Z,15.90
2018-09-12T15:47:59.257Z,15.80
2018-09-12T15:51:03.488Z,15.80
2018-09-12T15:54:07.733Z,15.70
2018-09-12T15:57:12.001Z,15.80
2018-09-12T16:00:16.253Z,15.80
2018-09-12T16:03:20.489Z,15.80
2018-09-12T16:06:24.745Z,15.80
2018-09-12T16:09:28.962Z,15.80
2018-09-12T16:12:33.180Z,15.70
2018-09-12T16:15:37.411Z,15.70
2018-09-12T16:18:42.450Z,15.60
2018-09-12T16:21:46.677Z,15.50
2018-09-12T16:24:50.896Z,15.50
2018-09-12T16:27:55.145Z,15.50
2018-09-12T16:30:59.362Z,15.50
2018-09-12T16:34:03.604Z,15.50
2018-09-12T16:37:07.836Z,15.40
2018-09-12T16:40:12.298Z,15.30
2018-09-12T16:43:16.521Z,15.30
2018-09-12T16:46:20.789Z,15.30
2018-09-12T16:49:24.997Z,15.30
2018-09-12T16:52:29.238Z,15.20
2018-09-12T16:55:33.466Z,15.10
2018-09-12T16:58:37.719Z,15.10
2018-09-12T17:01:41.940Z,15.10
2018-09-12T17:04:46.168Z,15.00
2018-09-12T17:07:50.406Z,15.00
2018-09-12T17:10:54.586Z,14.80
2018-09-12T17:13:58.818Z,14.90
2018-09-12T17:17:03.146Z,14.80
2018-09-12T17:20:07.721Z,14.70
2018-09-12T17:23:11.903Z,14.70
2018-09-12T17:26:16.150Z,14.60
2018-09-12T17:29:20.367Z,14.60
2018-09-12T17:32:24.658Z,14.50
2018-09-12T17:35:29.328Z,14.50
2018-09-12T17:38:33.569Z,14.50
2018-09-12T17:41:37.764Z,14.40
2018-09-12T17:44:42.027Z,14.40
2018-09-12T17:47:46.249Z,14.40
2018-09-12T17:50:50.481Z,14.30
2018-09-12T17:53:54.685Z,14.30
2018-09-12T17:56:58.880Z,14.30
2018-09-12T18:00:03.129Z,14.20
2018-09-12T18:03:07.506Z,14.10
2018-09-12T18:06:11.745Z,14.10
2018-09-12T18:09:15.962Z,14.00
2018-09-12T18:12:20.244Z,14.00
2018-09-12T18:15:24.457Z,14.00
2018-09-12T18:18:28.703Z,13.90
2018-09-12T18:21:32.909Z,13.90
2018-09-12T18:24:37.228Z,13.80
2018-09-12T18:27:41.441Z,13.80
2018-09-12T18:30:45.677Z,13.70
2018-09-12T18:33:49.905Z,13.70
2018-09-12T18:36:54.121Z,13.70
2018-09-12T18:39:58.323Z,13.60
2018-09-12T18:43:02.641Z,13.60
2018-09-12T18:46:06.817Z,13.60
2018-09-12T18:49:11.068Z,13.60
2018-09-12T18:52:15.298Z,13.50
2018-09-12T18:55:19.562Z,13.50
2018-09-12T18:58:23.772Z,13.50
2018-09-12T19:01:28.027Z,13.40
2018-09-12T19:04:32.246Z,13.40
2018-09-12T19:07:36.477Z,13.40
2018-09-12T19:10:40.705Z,13.40
2018-09-12T19:13:46.115Z,13.30
2018-09-12T19:16:50.415Z,13.30
2018-09-12T19:19:54.849Z,13.40
2018-09-12T19:22:59.062Z,13.30
2018-09-12T19:26:03.285Z,13.30
2018-09-12T19:29:07.553Z,13.30
2018-09-12T19:32:11.825Z,13.20
2018-09-12T19:35:16.040Z,13.20
2018-09-12T19:38:20.285Z,13.20
2018-09-12T19:41:24.525Z,13.10
2018-09-12T19:44:28.741Z,13.10
2018-09-12T19:47:32.986Z,13.10
2018-09-12T19:50:38.014Z,13.10
2018-09-12T19:53:42.404Z,13.00
2018-09-12T19:56:46.625Z,12.90
2018-09-12T19:59:51.717Z,12.90
2018-09-12T20:02:55.916Z,12.90
2018-09-12T20:06:00.326Z,12.80
2018-09-12T20:09:06.479Z,12.80
2018-09-12T20:12:10.696Z,12.70
2018-09-12T20:15:14.933Z,12.70
2018-09-12T20:18:19.192Z,12.60
2018-09-12T20:21:23.413Z,12.60
2018-09-12T20:24:27.635Z,12.60
2018-09-12T20:27:33.004Z,12.50
2018-09-12T20:30:37.248Z,12.50
2018-09-12T20:33:41.444Z,12.50
2018-09-12T20:36:45.674Z,12.40
2018-09-12T20:39:49.900Z,12.40
2018-09-12T20:42:54.138Z,12.40
2018-09-12T20:45:58.357Z,12.40
2018-09-12T20:49:02.647Z,12.30
2018-09-12T20:52:06.876Z,12.30
2018-09-12T20:55:11.096Z,12.30
2018-09-12T20:58:15.322Z,12.30
2018-09-12T21:01:19.537Z,12.30
2018-09-12T21:04:23.773Z,12.30
2018-09-12T21:07:27.988Z,12.20
2018-09-12T21:10:32.230Z,12.20
2018-09-12T21:13:36.460Z,12.20
2018-09-12T21:16:40.698Z,12.10
2018-09-12T21:19:44.902Z,12.10
2018-09-12T21:22:49.569Z,12.10
2018-09-12T21:25:53.812Z,12.00
2018-09-12T21:28:58.314Z,12.00
2018-09-12T21:32:02.529Z,11.90
2018-09-12T21:35:06.748Z,11.90
2018-09-12T21:38:10.948Z,11.80
2018-09-12T21:41:15.191Z,11.80
2018-09-12T21:44:19.425Z,11.70
2018-09-12T21:47:23.687Z,11.70
2018-09-12T21:50:27.912Z,11.70
2018-09-12T21:53:32.173Z,11.70
2018-09-12T21:56:36.399Z,11.70
2018-09-12T21:59:40.660Z,11.60
2018-09-12T22:02:44.896Z,11.60
2018-09-12T22:05:49.144Z,11.60
2018-09-12T22:08:53.372Z,11.50
2018-09-12T22:11:57.633Z,11.50
2018-09-12T22:15:01.878Z,11.50
2018-09-12T22:18:06.144Z,11.50
2018-09-12T22:21:10.397Z,11.50
2018-09-12T22:24:14.630Z,11.50
2018-09-12T22:27:18.871Z,11.50
2018-09-12T22:30:23.113Z,11.50
2018-09-12T22:33:27.356Z,11.50
2018-09-12T22:36:31.585Z,11.40
2018-09-12T22:39:35.820Z,11.40
2018-09-12T22:42:40.040Z,11.30
2018-09-12T22:45:44.278Z,11.30
2018-09-12T22:48:48.496Z,11.30
2018-09-12T22:51:52.717Z,11.20
2018-09-12T22:54:56.930Z,11.30
2018-09-12T22:58:01.194Z,11.20
2018-09-12T23:01:05.404Z,11.30
2018-09-12T23:04:09.645Z,11.30
2018-09-12T23:07:13.857Z,11.30
2018-09-12T23:10:18.110Z,11.30
2018-09-12T23:13:22.304Z,11.20
2018-09-12T23:16:26.547Z,11.20
2018-09-12T23:19:30.782Z,11.10
2018-09-12T23:22:35.050Z,11.10
2018-09-12T23:25:39.270Z,11.10
2018-09-12T23:28:43.499Z,11.10
2018-09-12T23:31:47.728Z,10.90
2018-09-12T23:34:51.965Z,10.90
2018-09-12T23:37:56.225Z,10.90
2018-09-12T23:41:00.425Z,10.90
2018-09-12T23:44:04.677Z,10.90
2018-09-12T23:47:08.922Z,10.80
2018-09-12T23:50:13.157Z,10.80
2018-09-12T23:53:17.393Z,10.70
2018-09-12T23:56:21.620Z,10.70
2018-09-12T23:59:25.865Z,10.70
